Time;durP1;ratioP1;P1;durP2;ratioP2;P2;SDS_P1;SDS_P2;PMS_P1;PMS_P2;Temp;Humidity;BMP_temperature;BMP_pressure;BME280_temperature;BME280_humidity;BME280_pressure;Samples;Min_cycle;Max_cycle;Signal;HPM_P1;HPM_P2
2022/03/29 00:00:58;;;;;;;33.08;19.50;;;6.30;99.90;;;;;;5090855;28;20063;-44
2022/03/29 00:03:24;;;;;;;30.67;20.25;;;6.80;99.90;;;;;;5091351;28;20055;-45
2022/03/29 00:05:50;;;;;;;25.98;18.02;;;6.30;99.90;;;;;;5091301;28;20032;-45
2022/03/29 00:08:15;;;;;;;27.83;18.23;;;6.20;99.90;;;;;;5091112;28;20508;-45
2022/03/29 00:10:41;;;;;;;29.17;19.63;;;5.90;99.90;;;;;;5091369;28;20052;-45
2022/03/29 00:13:07;;;;;;;30.52;18.95;;;6.30;99.90;;;;;;5090924;28;20040;-44
2022/03/29 00:15:33;;;;;;;29.67;18.85;;;6.70;99.90;;;;;;5090999;28;20055;-45
2022/03/29 00:17:59;;;;;;;34.95;22.83;;;6.30;99.90;;;;;;5090868;28;20040;-44
2022/03/29 00:20:25;;;;;;;31.98;20.25;;;6.30;99.90;;;;;;5091493;28;20146;-44
2022/03/29 00:22:50;;;;;;;27.85;17.90;;;6.30;99.90;;;;;;5091031;28;20085;-44
2022/03/29 00:25:17;;;;;;;30.25;17.73;;;6.30;99.90;;;;;;5090783;28;20046;-44
2022/03/29 00:27:43;;;;;;;28.48;18.08;;;6.30;99.90;;;;;;5090705;28;20032;-45
2022/03/29 00:30:11;;;;;;;29.80;18.92;;;6.30;99.90;;;;;;5090645;28;20101;-44
2022/03/29 00:32:40;;;;;;;28.10;17.60;;;6.30;99.90;;;;;;5091397;28;20570;-44
2022/03/29 00:35:07;;;;;;;28.55;17.45;;;6.60;99.90;;;;;;5090589;28;20040;-44
2022/03/29 00:37:34;;;;;;;27.25;17.13;;;6.30;99.90;;;;;;5090817;28;20101;-45
2022/03/29 00:39:59;;;;;;;29.10;17.52;;;6.20;99.90;;;;;;5090502;28;20455;-45
2022/03/29 00:42:25;;;;;;;28.83;17.92;;;6.30;99.90;;;;;;5090781;28;20040;-45
2022/03/29 00:44:50;;;;;;;33.00;18.27;;;6.30;99.90;;;;;;5090901;28;20070;-45
2022/03/29 00:47:16;;;;;;;29.00;17.85;;;6.90;99.90;;;;;;5090636;28;20374;-45
2022/03/29 00:49:42;;;;;;;27.85;17.48;;;7.00;99.90;;;;;;5090213;28;20051;-44
2022/03/29 00:52:09;;;;;;;32.28;19.40;;;6.30;99.90;;;;;;5089906;28;20085;-44
2022/03/29 00:54:39;;;;;;;30.58;17.42;;;6.30;99.90;;;;;;5090187;28;20096;-43
2022/03/29 00:57:05;;;;;;;28.75;18.80;;;6.20;99.90;;;;;;5089695;28;20040;-45
2022/03/29 00:59:31;;;;;;;27.98;18.50;;;6.30;99.90;;;;;;5090402;28;20043;-44
2022/03/29 01:01:57;;;;;;;25.88;17.15;;;6.30;99.90;;;;;;5089845;28;20052;-45
2022/03/29 01:04:25;;;;;;;30.08;17.58;;;6.50;99.90;;;;;;5090034;28;20051;-45
2022/03/29 01:06:53;;;;;;;30.98;17.95;;;6.30;99.90;;;;;;5090487;28;20036;-45
2022/03/29 01:09:19;;;;;;;33.92;19.48;;;6.20;99.90;;;;;;5090537;28;20480;-45
2022/03/29 01:11:45;;;;;;;30.40;18.52;;;6.30;99.90;;;;;;5090081;28;20059;-45
2022/03/29 01:14:11;;;;;;;32.15;18.50;;;6.30;99.90;;;;;;5090285;28;20082;-44
2022/03/29 01:19:21;;;;;;;30.70;18.15;;;6.30;99.90;;;;;;5089659;28;20132;-44
2022/03/29 01:22:09;;;;;;;30.63;18.25;;;6.30;99.90;;;;;;5089849;28;20119;-44
2022/03/29 01:24:36;;;;;;;31.45;18.95;;;6.30;99.90;;;;;;5089979;28;20135;-45
2022/03/29 01:27:05;;;;;;;31.50;17.52;;;6.20;99.90;;;;;;5089963;28;20063;-44
2022/03/29 01:29:33;;;;;;;29.35;18.27;;;7.10;99.90;;;;;;5090057;28;20052;-44
2022/03/29 01:32:02;;;;;;;31.08;17.85;;;6.20;99.90;;;;;;5089828;28;20547;-44
2022/03/29 01:34:28;;;;;;;31.35;17.13;;;6.30;99.90;;;;;;5089527;28;20076;-44
2022/03/29 01:36:54;;;;;;;30.58;17.33;;;6.20;99.90;;;;;;5089505;28;20044;-44
2022/03/29 01:39:20;;;;;;;30.60;18.08;;;6.20;99.90;;;;;;5089349;28;20439;-44
2022/03/29 01:41:47;;;;;;;31.00;17.33;;;6.20;99.90;;;;;;5089554;28;20404;-44
2022/03/29 01:44:13;;;;;;;29.17;18.25;;;6.70;99.90;;;;;;5089163;28;20040;-44
2022/03/29 01:46:39;;;;;;;31.67;18.45;;;6.20;99.90;;;;;;5089300;28;20040;-44
2022/03/29 01:49:05;;;;;;;31.70;19.27;;;6.20;99.90;;;;;;5089230;28;20466;-45
2022/03/29 01:51:32;;;;;;;31.88;17.95;;;6.20;99.90;;;;;;5089362;28;20515;-45
2022/03/29 01:54:01;;;;;;;31.33;18.38;;;6.20;99.90;;;;;;5089149;28;20036;-44
2022/03/29 01:56:27;;;;;;;32.38;17.85;;;6.20;99.90;;;;;;5088918;28;20044;-45
2022/03/29 01:58:53;;;;;;;34.65;19.27;;;6.20;99.90;;;;;;5088875;28;20505;-44
2022/03/29 02:01:19;;;;;;;33.63;17.73;;;6.20;99.90;;;;;;5088461;28;20052;-44
2022/03/29 02:03:45;;;;;;;32.15;18.23;;;6.10;99.90;;;;;;5088960;28;20052;-44
2022/03/29 02:06:10;;;;;;;29.90;17.75;;;6.10;99.90;;;;;;5088639;28;20067;-44
2022/03/29 02:08:36;;;;;;;30.98;17.50;;;6.10;99.90;;;;;;5089056;28;20071;-44
2022/03/29 02:11:02;;;;;;;31.40;17.70;;;6.60;99.90;;;;;;5089023;28;20440;-44
2022/03/29 02:13:28;;;;;;;29.13;17.50;;;6.00;99.90;;;;;;5089359;28;20036;-44
2022/03/29 02:15:53;;;;;;;32.53;18.42;;;6.90;99.90;;;;;;5089001;28;20147;-44
2022/03/29 02:18:19;;;;;;;31.17;17.70;;;6.40;99.90;;;;;;5070583;28;20048;-44
2022/03/29 02:20:45;;;;;;;31.25;18.60;;;6.00;99.90;;;;;;5088583;28;20043;-44
2022/03/29 02:23:14;;;;;;;27.92;17.05;;;6.10;99.90;;;;;;5088875;28;20044;-44
2022/03/29 02:25:40;;;;;;;33.47;18.65;;;6.10;99.90;;;;;;5088797;28;20091;-44
2022/03/29 02:28:06;;;;;;;30.05;17.88;;;6.00;99.90;;;;;;5089337;28;20123;-47
2022/03/29 02:30:36;;;;;;;32.65;18.98;;;6.10;99.90;;;;;;5088869;28;20124;-44
2022/03/29 02:33:03;;;;;;;27.30;16.92;;;6.40;99.90;;;;;;5088719;28;20051;-45
2022/03/29 02:35:29;;;;;;;31.38;17.95;;;6.00;99.90;;;;;;5088705;28;20040;-44
2022/03/29 02:37:55;;;;;;;34.25;18.52;;;6.10;99.90;;;;;;5070450;28;20498;-44
2022/03/29 02:40:20;;;;;;;27.98;17.30;;;6.10;99.90;;;;;;5088837;28;20079;-45
2022/03/29 02:42:49;;;;;;;32.50;19.42;;;6.40;99.90;;;;;;5088895;28;20086;-44
2022/03/29 02:45:16;;;;;;;30.88;18.77;;;6.50;99.90;;;;;;5088690;28;20494;-45
2022/03/29 02:47:43;;;;;;;33.08;18.52;;;6.20;99.90;;;;;;5088657;28;20079;-45
2022/03/29 02:50:09;;;;;;;35.15;18.52;;;6.20;99.90;;;;;;5088770;28;20065;-45
2022/03/29 02:52:55;;;;;;;34.15;19.00;;;6.00;99.90;;;;;;5088398;28;20048;-44
2022/03/29 02:55:24;;;;;;;34.35;19.02;;;6.20;99.90;;;;;;5088041;28;20510;-45
2022/03/29 02:57:50;;;;;;;30.60;18.83;;;6.20;99.90;;;;;;5088553;28;20315;-44
2022/03/29 03:00:17;;;;;;;30.27;18.90;;;6.20;99.90;;;;;;5088240;28;20102;-44
2022/03/29 03:02:43;;;;;;;32.67;19.83;;;6.20;99.90;;;;;;5088051;28;20044;-43
2022/03/29 03:05:10;;;;;;;30.50;18.90;;;6.20;99.90;;;;;;5088455;28;20071;-45
2022/03/29 03:07:43;;;;;;;36.45;20.73;;;6.20;99.90;;;;;;5088372;28;20052;-44
2022/03/29 03:10:11;;;;;;;38.38;20.40;;;6.20;99.90;;;;;;5088596;28;20067;-45
2022/03/29 03:12:44;;;;;;;36.00;20.52;;;6.20;99.90;;;;;;5088296;28;20356;-44
2022/03/29 03:15:13;;;;;;;41.30;21.67;;;6.20;99.90;;;;;;5088590;28;20052;-44
2022/03/29 03:17:39;;;;;;;34.47;21.13;;;7.20;99.90;;;;;;5088132;28;20043;-45
2022/03/29 03:20:06;;;;;;;35.67;20.95;;;6.20;99.90;;;;;;5092185;28;20044;-45
2022/03/29 03:22:33;;;;;;;38.17;22.48;;;6.20;99.90;;;;;;5092314;28;20040;-45
2022/03/29 03:24:59;;;;;;;40.65;22.45;;;6.20;99.90;;;;;;5092501;28;20470;-44
2022/03/29 03:27:25;;;;;;;37.90;20.95;;;6.10;99.90;;;;;;5073764;28;20088;-45
2022/03/29 03:29:51;;;;;;;36.42;21.52;;;5.90;99.90;;;;;;5092216;28;20056;-43
2022/03/29 03:32:16;;;;;;;36.92;20.52;;;7.00;99.90;;;;;;5092103;28;20048;-44
2022/03/29 03:34:42;;;;;;;36.40;21.88;;;6.20;99.90;;;;;;5091719;28;20051;-43
2022/03/29 03:37:08;;;;;;;42.85;23.23;;;6.20;99.90;;;;;;5091771;28;20044;-43
2022/03/29 03:39:37;;;;;;;37.35;23.13;;;6.20;99.90;;;;;;5091673;28;20048;-45
2022/03/29 03:42:08;;;;;;;40.80;23.65;;;6.10;99.90;;;;;;5092210;28;20426;-44
2022/03/29 03:44:34;;;;;;;38.63;22.80;;;6.20;99.90;;;;;;5091953;28;20067;-44
2022/03/29 03:47:00;;;;;;;40.20;24.17;;;6.20;99.90;;;;;;5091446;28;20072;-44
2022/03/29 03:49:26;;;;;;;37.90;23.77;;;6.20;99.90;;;;;;5092148;28;20044;-45
2022/03/29 03:51:52;;;;;;;36.58;23.40;;;6.20;99.90;;;;;;5091697;28;20492;-44
2022/03/29 03:54:18;;;;;;;40.38;23.02;;;6.20;99.90;;;;;;5091362;28;20044;-44
2022/03/29 03:56:44;;;;;;;36.53;22.02;;;6.20;99.90;;;;;;5091541;28;20035;-44
2022/03/29 03:59:09;;;;;;;44.35;23.90;;;6.20;99.90;;;;;;5091981;28;20423;-44
2022/03/29 04:01:35;;;;;;;43.03;23.02;;;6.20;99.90;;;;;;5090775;28;20181;-44
2022/03/29 04:04:01;;;;;;;37.97;22.27;;;6.90;99.90;;;;;;5091258;28;20140;-44
2022/03/29 04:06:26;;;;;;;40.60;22.67;;;6.20;99.90;;;;;;5091057;28;20055;-44
2022/03/29 04:08:52;;;;;;;39.35;22.23;;;6.10;99.90;;;;;;5090680;28;20051;-44
2022/03/29 04:11:19;;;;;;;36.45;22.15;;;6.10;99.90;;;;;;5091269;28;20047;-46
2022/03/29 04:13:45;;;;;;;41.65;23.13;;;6.20;99.90;;;;;;5091402;28;20044;-44
2022/03/29 04:16:10;;;;;;;39.55;23.23;;;6.20;99.90;;;;;;5090995;28;20398;-44
2022/03/29 04:18:36;;;;;;;45.22;22.67;;;6.30;99.90;;;;;;5089102;28;20054;-39
2022/03/29 04:21:04;;;;;;;42.13;23.13;;;6.50;99.90;;;;;;5088982;28;20052;-40
2022/03/29 04:23:31;;;;;;;45.65;23.38;;;6.20;99.90;;;;;;5072972;28;20062;-40
2022/03/29 04:26:00;;;;;;;42.17;22.75;;;6.10;99.90;;;;;;5072918;28;20143;-52
2022/03/29 04:28:26;;;;;;;36.17;22.55;;;7.00;99.90;;;;;;5090678;28;20469;-55
2022/03/29 04:30:55;;;;;;;33.70;20.58;;;6.10;99.90;;;;;;5073519;28;20410;-50
2022/03/29 04:33:21;;;;;;;39.22;22.88;;;6.20;99.90;;;;;;5072391;28;20123;-51
2022/03/29 04:35:47;;;;;;;39.92;22.60;;;6.10;99.90;;;;;;5055204;28;20055;-48
2022/03/29 04:38:13;;;;;;;38.60;21.90;;;6.60;99.90;;;;;;5090466;28;20044;-47
2022/03/29 04:40:38;;;;;;;38.22;21.67;;;6.10;99.90;;;;;;5071943;28;20519;-46
2022/03/29 04:43:04;;;;;;;37.53;21.83;;;6.10;99.90;;;;;;5072635;28;20123;-42
2022/03/29 04:45:30;;;;;;;36.70;23.10;;;6.10;99.90;;;;;;5090752;28;20048;-48
2022/03/29 04:47:56;;;;;;;42.92;23.25;;;6.10;99.90;;;;;;5072075;28;20124;-49
2022/03/29 04:50:22;;;;;;;41.28;24.15;;;6.10;99.90;;;;;;5090179;28;20584;-44
2022/03/29 04:52:47;;;;;;;41.00;23.67;;;6.10;99.90;;;;;;5090684;28;20036;-44
2022/03/29 04:55:17;;;;;;;38.88;22.55;;;6.10;99.90;;;;;;5090462;28;20044;-45
2022/03/29 04:57:46;;;;;;;41.38;23.27;;;6.10;99.90;;;;;;5090271;28;20047;-48
2022/03/29 05:00:14;;;;;;;41.47;22.13;;;6.10;99.90;;;;;;5090038;28;20040;-45
2022/03/29 05:02:41;;;;;;;44.22;23.70;;;6.10;99.90;;;;;;5089893;28;20776;-45
2022/03/29 05:05:07;;;;;;;42.55;23.55;;;6.10;99.90;;;;;;5071788;28;20169;-48
2022/03/29 05:07:33;;;;;;;44.03;23.73;;;6.10;99.90;;;;;;5089629;28;20458;-51
2022/03/29 05:09:59;;;;;;;41.90;24.25;;;5.70;99.90;;;;;;5089794;28;20051;-49
2022/03/29 05:12:25;;;;;;;42.50;22.90;;;5.90;99.90;;;;;;5090817;28;20047;-48
2022/03/29 05:14:51;;;;;;;47.03;25.75;;;6.70;99.90;;;;;;5090013;28;20075;-50
2022/03/29 05:17:17;;;;;;;43.67;24.73;;;6.10;99.90;;;;;;5089607;28;20109;-48
2022/03/29 05:19:42;;;;;;;40.45;23.45;;;6.10;99.90;;;;;;5089595;28;20064;-51
2022/03/29 05:22:08;;;;;;;40.08;23.05;;;6.10;99.90;;;;;;5087978;28;20036;-50
2022/03/29 05:24:34;;;;;;;38.20;23.73;;;6.10;99.90;;;;;;5090098;28;20044;-47
2022/03/29 05:26:59;;;;;;;41.17;23.15;;;6.10;99.90;;;;;;5089693;28;20109;-48
2022/03/29 05:29:27;;;;;;;39.63;23.08;;;6.10;99.90;;;;;;5089402;28;20478;-48
2022/03/29 05:31:53;;;;;;;43.65;23.70;;;6.10;99.90;;;;;;5087993;28;20622;-49
2022/03/29 05:34:31;;;;;;;44.80;24.40;;;6.10;99.90;;;;;;5089079;28;20076;-50
2022/03/29 05:36:57;;;;;;;42.58;23.85;;;6.10;99.90;;;;;;5088733;28;20149;-48
2022/03/29 05:39:23;;;;;;;41.95;24.05;;;6.10;99.90;;;;;;5089312;28;20115;-51
2022/03/29 05:41:48;;;;;;;39.78;23.98;;;6.10;99.90;;;;;;5088589;28;20040;-48
2022/03/29 05:44:14;;;;;;;41.40;24.83;;;6.10;99.90;;;;;;5088921;28;20071;-53
2022/03/29 05:49:26;;;;;;;36.92;23.25;;;6.10;99.90;;;;;;5088971;28;20563;-50
2022/03/29 05:51:52;;;;;;;44.28;23.70;;;6.20;99.90;;;;;;5088799;28;20055;-51
2022/03/29 05:54:18;;;;;;;40.83;23.35;;;6.10;99.90;;;;;;5088925;28;20485;-48
2022/03/29 05:56:47;;;;;;;42.92;25.40;;;6.20;99.90;;;;;;5089514;28;20132;-47
2022/03/29 05:59:12;;;;;;;47.75;24.85;;;6.10;99.90;;;;;;5070318;28;20106;-48
2022/03/29 06:01:39;;;;;;;49.33;24.80;;;6.30;99.90;;;;;;5088590;28;20052;-51
2022/03/29 06:04:06;;;;;;;42.17;23.17;;;6.30;99.90;;;;;;5088234;28;20040;-51
2022/03/29 06:06:38;;;;;;;47.08;24.25;;;6.10;99.90;;;;;;5088786;28;20048;-48
2022/03/29 06:09:04;;;;;;;42.22;23.67;;;6.30;99.90;;;;;;5088757;28;20249;-51
2022/03/29 06:11:30;;;;;;;38.65;23.35;;;6.30;99.90;;;;;;5088563;28;20047;-51
2022/03/29 06:13:56;;;;;;;40.58;23.08;;;6.40;99.90;;;;;;5088596;28;20127;-48
2022/03/29 06:16:21;;;;;;;47.05;22.95;;;6.40;99.90;;;;;;5088535;28;20073;-51
2022/03/29 06:18:47;;;;;;;42.75;22.40;;;7.40;99.90;;;;;;5088247;28;20036;-48
2022/03/29 06:21:13;;;;;;;38.58;21.80;;;6.50;99.90;;;;;;5088807;28;20043;-51
2022/03/29 06:23:42;;;;;;;43.88;23.77;;;6.60;99.90;;;;;;5088987;28;20585;-50
2022/03/29 06:26:08;;;;;;;42.00;22.70;;;6.60;99.90;;;;;;5088432;28;20067;-49
2022/03/29 06:28:34;;;;;;;46.58;24.88;;;6.60;99.90;;;;;;5089014;28;20051;-50
2022/03/29 06:31:00;;;;;;;41.50;22.42;;;6.90;99.90;;;;;;5088439;28;20374;-47
2022/03/29 06:33:26;;;;;;;42.63;22.83;;;6.70;99.90;;;;;;5088424;28;20040;-52
2022/03/29 06:35:52;;;;;;;44.10;23.48;;;6.80;99.90;;;;;;5087869;28;20051;-48
2022/03/29 06:38:21;;;;;;;42.83;24.00;;;6.80;99.90;;;;;;5087940;28;20502;-51
2022/03/29 06:40:50;;;;;;;43.67;23.17;;;6.60;99.90;;;;;;5088140;28;20093;-48
2022/03/29 06:43:16;;;;;;;40.95;21.95;;;6.90;99.90;;;;;;5069845;28;20051;-51
2022/03/29 06:45:42;;;;;;;47.40;22.20;;;6.90;99.90;;;;;;5088098;28;20044;-51
2022/03/29 06:48:08;;;;;;;40.88;22.60;;;6.80;99.90;;;;;;5088159;28;20211;-50
2022/03/29 06:50:35;;;;;;;44.53;22.77;;;7.00;99.90;;;;;;5088453;28;20398;-48
2022/03/29 06:53:01;;;;;;;38.83;21.95;;;7.10;99.90;;;;;;5087727;28;20570;-50
2022/03/29 06:55:28;;;;;;;38.35;22.40;;;7.10;99.90;;;;;;5092600;28;20040;-48
2022/03/29 06:57:54;;;;;;;38.13;23.38;;;7.20;99.90;;;;;;5092239;28;20055;-48
2022/03/29 07:00:21;;;;;;;44.50;23.45;;;7.70;99.90;;;;;;5092320;28;20047;-50
2022/03/29 07:02:48;;;;;;;40.10;23.27;;;7.30;99.90;;;;;;5091799;28;20084;-51
2022/03/29 07:05:14;;;;;;;44.67;22.83;;;7.70;99.90;;;;;;5091626;28;20044;-52
2022/03/29 07:07:41;;;;;;;41.22;21.95;;;7.40;99.90;;;;;;5092583;28;20079;-48
2022/03/29 07:13:05;;;;;;;40.42;22.58;;;7.60;99.90;;;;;;5092215;28;20058;-49
2022/03/29 07:15:31;;;;;;;42.35;21.35;;;7.70;99.90;;;;;;5092416;28;20036;-51
2022/03/29 07:17:58;;;;;;;40.90;24.20;;;7.80;99.90;;;;;;5073717;28;20047;-49
2022/03/29 07:20:24;;;;;;;41.88;22.02;;;8.70;99.90;;;;;;5092425;28;20032;-50
2022/03/29 07:22:51;;;;;;;39.95;22.50;;;8.00;99.90;;;;;;5090844;28;20472;-50
2022/03/29 07:25:18;;;;;;;45.90;22.05;;;8.10;99.90;;;;;;5091625;28;20089;-51
2022/03/29 07:27:45;;;;;;;40.45;22.25;;;8.50;99.90;;;;;;5092041;28;20063;-51
2022/03/29 07:30:11;;;;;;;37.03;21.02;;;8.20;99.90;;;;;;5091965;28;20058;-52
2022/03/29 07:32:48;;;;;;;33.50;20.83;;;8.30;99.90;;;;;;5091529;28;20390;-48
2022/03/29 07:35:16;;;;;;;40.75;21.85;;;8.40;99.90;;;;;;5091651;28;20089;-48
2022/03/29 07:37:42;;;;;;;41.05;21.20;;;8.40;99.90;;;;;;5091654;28;20048;-48
2022/03/29 07:40:13;;;;;;;41.17;21.92;;;8.40;99.90;;;;;;5091272;28;20044;-51
2022/03/29 07:42:39;;;;;;;48.58;22.05;;;8.50;99.90;;;;;;5092155;28;20036;-47
2022/03/29 07:45:07;;;;;;;36.88;21.67;;;8.50;99.90;;;;;;5091733;28;20046;-50
2022/03/29 07:47:34;;;;;;;36.83;21.00;;;8.60;99.90;;;;;;5091859;28;20044;-50
2022/03/29 07:50:05;;;;;;;37.92;21.17;;;8.50;99.90;;;;;;5091724;28;20427;-51
2022/03/29 07:52:31;;;;;;;36.85;21.40;;;9.20;99.90;;;;;;5091792;28;20044;-49
2022/03/29 07:55:11;;;;;;;35.15;18.50;;;8.60;99.90;;;;;;5092044;28;20126;-48
2022/03/29 07:57:38;;;;;;;32.08;17.92;;;8.70;99.90;;;;;;5091840;28;20048;-49
2022/03/29 08:02:53;;;;;;;35.35;18.83;;;8.90;99.90;;;;;;5089897;28;20103;-50
2022/03/29 08:05:20;;;;;;;32.72;18.77;;;9.60;99.90;;;;;;5089388;28;20506;-48
2022/03/29 08:07:47;;;;;;;37.53;19.85;;;9.20;99.90;;;;;;5090294;28;20040;-50
2022/03/29 08:10:13;;;;;;;31.92;18.02;;;9.20;99.90;;;;;;5090558;28;20443;-52
2022/03/29 08:12:42;;;;;;;37.30;18.65;;;9.30;99.90;;;;;;5089778;28;20079;-51
2022/03/29 08:15:10;;;;;;;35.35;19.45;;;9.40;99.90;;;;;;5071953;28;20046;-50
2022/03/29 08:17:36;;;;;;;31.80;17.92;;;9.50;99.90;;;;;;5090032;28;20047;-51
2022/03/29 08:20:04;;;;;;;42.22;17.63;;;9.60;99.90;;;;;;5089883;28;20063;-47
2022/03/29 08:22:30;;;;;;;34.33;18.10;;;9.70;99.90;;;;;;5083764;28;20044;-48
2022/03/29 08:24:56;;;;;;;31.60;18.38;;;9.70;99.90;;;;;;5090432;28;20036;-51
2022/03/29 08:27:21;;;;;;;34.10;17.63;;;9.90;99.90;;;;;;5089799;28;20052;-48
2022/03/29 08:29:47;;;;;;;31.55;18.98;;;9.90;99.90;;;;;;5090434;28;20083;-49
2022/03/29 08:32:14;;;;;;;28.48;16.45;;;10.30;99.90;;;;;;5089933;28;20040;-49
2022/03/29 08:34:39;;;;;;;34.13;17.45;;;10.10;99.90;;;;;;5089883;28;20572;-49
2022/03/29 08:37:05;;;;;;;33.60;17.00;;;10.40;99.90;;;;;;5071108;28;20131;-51
2022/03/29 08:39:31;;;;;;;26.77;17.45;;;10.20;99.90;;;;;;5089332;28;20046;-48
2022/03/29 08:42:08;;;;;;;34.50;18.23;;;10.30;99.90;;;;;;5089919;28;20494;-48
2022/03/29 08:44:34;;;;;;;32.67;17.38;;;10.40;99.90;;;;;;5089656;28;20498;-49
2022/03/29 08:47:01;;;;;;;34.05;18.92;;;10.50;99.90;;;;;;5089791;28;20040;-48
2022/03/29 08:49:27;;;;;;;36.40;18.40;;;10.50;99.90;;;;;;5089498;28;20036;-51
2022/03/29 08:51:54;;;;;;;32.53;17.65;;;10.60;99.90;;;;;;5089553;28;20047;-49
2022/03/29 08:54:20;;;;;;;29.52;16.83;;;11.20;99.90;;;;;;5089632;28;20102;-49
2022/03/29 08:56:46;;;;;;;36.08;17.60;;;10.70;99.90;;;;;;5089599;28;20036;-49
2022/03/29 08:59:12;;;;;;;29.83;17.50;;;10.60;99.90;;;;;;5089104;28;20080;-49
2022/03/29 09:01:38;;;;;;;31.77;18.23;;;10.70;99.90;;;;;;5051179;28;1088460;-49
2022/03/29 09:04:04;;;;;;;27.27;16.73;;;10.80;99.90;;;;;;5090476;28;20055;-48
2022/03/29 09:06:30;;;;;;;37.08;16.52;;;10.80;99.90;;;;;;5089860;28;20048;-50
2022/03/29 09:08:56;;;;;;;35.67;18.45;;;10.80;99.90;;;;;;5090427;28;20036;-48
2022/03/29 09:11:21;;;;;;;32.78;17.55;;;10.70;99.90;;;;;;5089530;28;20529;-50
2022/03/29 09:14:00;;;;;;;30.00;17.85;;;10.90;99.90;;;;;;5090084;28;20127;-51
2022/03/29 09:16:29;;;;;;;29.63;17.77;;;10.90;99.90;;;;;;5089316;28;20044;-48
2022/03/29 09:18:55;;;;;;;35.00;17.55;;;11.80;99.90;;;;;;5090296;28;20056;-48
2022/03/29 09:21:21;;;;;;;33.65;18.10;;;11.40;99.90;;;;;;5088643;28;20093;-51
2022/03/29 09:24:16;;;;;;;35.72;19.13;;;10.70;99.90;;;;;;5089544;28;20414;-49
2022/03/29 09:26:44;;;;;;;33.55;18.13;;;10.70;99.90;;;;;;5089985;28;20044;-50
2022/03/29 09:29:20;;;;;;;32.58;18.67;;;10.60;99.90;;;;;;5089102;28;20150;-51
2022/03/29 09:32:09;;;;;;;34.75;17.35;;;10.70;99.90;;;;;;5089535;28;20435;-51
2022/03/29 09:34:35;;;;;;;30.88;18.55;;;10.70;99.90;;;;;;5088702;28;20831;-47
2022/03/29 09:37:03;;;;;;;29.08;16.15;;;10.80;99.90;;;;;;5088938;28;20066;-51
2022/03/29 09:39:40;;;;;;;30.92;15.85;;;10.80;99.90;;;;;;5088769;28;20390;-48
2022/03/29 09:42:11;;;;;;;37.13;18.27;;;10.90;99.90;;;;;;5088945;28;20047;-48
2022/03/29 09:44:45;;;;;;;32.17;17.73;;;11.20;99.90;;;;;;5088881;28;20862;-48
2022/03/29 09:47:13;;;;;;;32.70;15.80;;;11.10;99.90;;;;;;5089120;28;20086;-51
2022/03/29 09:49:54;;;;;;;30.13;17.65;;;11.40;99.90;;;;;;5088776;28;20474;-49
2022/03/29 09:52:23;;;;;;;33.00;16.40;;;11.40;99.90;;;;;;5088873;28;20046;-50
2022/03/29 09:55:06;;;;;;;29.42;15.68;;;11.80;99.90;;;;;;5088773;28;20048;-49
2022/03/29 09:57:39;;;;;;;30.52;15.52;;;12.00;99.90;;;;;;5069722;28;20476;-51
2022/03/29 10:00:07;;;;;;;30.27;16.02;;;12.10;99.90;;;;;;5088848;28;20064;-48
2022/03/29 10:02:45;;;;;;;30.05;16.65;;;12.20;99.90;;;;;;5088438;28;20121;-48
2022/03/29 10:05:11;;;;;;;29.73;15.15;;;12.20;99.10;;;;;;5089019;28;20035;-48
2022/03/29 10:10:46;;;;;;;26.35;14.73;;;12.50;97.20;;;;;;5056291;28;20048;-51
2022/03/29 10:13:13;;;;;;;27.77;14.63;;;12.90;97.20;;;;;;5088564;28;20096;-49
2022/03/29 10:15:41;;;;;;;29.67;14.98;;;13.30;96.00;;;;;;5088178;28;20036;-48
2022/03/29 10:18:08;;;;;;;25.75;13.35;;;14.00;97.00;;;;;;5088724;28;20039;-51
2022/03/29 10:20:34;;;;;;;25.48;13.48;;;14.70;95.00;;;;;;5085005;28;20482;-51
2022/03/29 10:23:01;;;;;;;31.80;15.40;;;15.20;93.80;;;;;;5081551;28;20050;-51
2022/03/29 10:25:28;;;;;;;27.40;14.10;;;15.60;93.10;;;;;;5088264;28;20040;-48
2022/03/29 10:27:59;;;;;;;24.08;12.90;;;15.70;91.20;;;;;;5088322;28;20047;-50
2022/03/29 10:30:37;;;;;;;24.27;13.48;;;15.60;89.90;;;;;;5088205;28;20067;-49
2022/03/29 10:33:23;;;;;;;25.13;12.15;;;15.20;87.00;;;;;;5088406;28;20363;-49
2022/03/29 10:36:06;;;;;;;23.70;12.35;;;14.80;80.70;;;;;;5088377;28;20058;-50
2022/03/29 10:38:47;;;;;;;27.70;11.98;;;14.60;86.80;;;;;;5088419;28;20042;-48
2022/03/29 10:41:31;;;;;;;20.52;12.63;;;14.90;85.50;;;;;;5088649;28;20221;-48
2022/03/29 10:44:04;;;;;;;25.85;12.98;;;15.20;85.60;;;;;;5088671;28;20086;-52
2022/03/29 10:46:41;;;;;;;27.95;12.20;;;15.70;86.20;;;;;;5088020;28;20576;-49
2022/03/29 10:49:24;;;;;;;24.02;12.32;;;16.00;81.50;;;;;;5088526;28;20048;-48
2022/03/29 10:51:53;;;;;;;27.30;13.70;;;15.80;80.60;;;;;;5088527;28;20157;-49
2022/03/29 10:54:26;;;;;;;21.27;12.95;;;15.60;80.90;;;;;;5088600;28;20051;-48
2022/03/29 10:57:03;;;;;;;25.38;13.02;;;15.10;79.50;;;;;;5088299;28;20040;-49
2022/03/29 10:59:31;;;;;;;27.23;12.85;;;14.80;79.90;;;;;;5088256;28;20081;-50
2022/03/29 11:02:18;;;;;;;26.08;12.32;;;14.60;80.70;;;;;;5087645;28;20091;-50
2022/03/29 11:05:10;;;;;;;20.02;10.73;;;14.60;81.50;;;;;;5088151;28;20119;-49
2022/03/29 11:07:37;;;;;;;;;;;14.50;79.00;;;;;;5088513;28;20120;-51
2022/03/29 11:10:09;;;;;;;22.52;11.35;;;14.20;79.70;;;;;;5070322;28;19919;-50
2022/03/29 11:12:39;;;;;;;;;;;14.10;81.90;;;;;;5070675;28;20435;-49
2022/03/29 11:15:36;;;;;;;28.00;10.90;;;14.10;81.20;;;;;;5088259;28;20301;-49
2022/03/29 11:18:23;;;;;;;26.25;10.52;;;14.00;81.60;;;;;;5088182;28;20075;-48
2022/03/29 11:21:02;;;;;;;23.98;10.13;;;14.10;82.80;;;;;;5086636;28;20569;-51
2022/03/29 11:23:40;;;;;;;19.33;9.88;;;14.30;82.50;;;;;;5087327;28;20040;-50
2022/03/29 11:26:15;;;;;;;24.73;9.90;;;14.70;82.00;;;;;;5087781;28;20046;-47
2022/03/29 11:28:51;;;;;;;31.00;9.95;;;14.90;80.40;;;;;;5087717;28;20056;-48
2022/03/29 11:31:18;;;;;;;21.50;9.25;;;14.80;79.10;;;;;;5087799;28;20147;-51
2022/03/29 11:33:49;;;;;;;18.35;8.57;;;14.60;79.80;;;;;;5087525;28;20043;-49
2022/03/29 11:36:16;;;;;;;26.58;9.98;;;14.50;80.30;;;;;;5088208;28;20127;-49
2022/03/29 11:38:42;;;;;;;20.13;9.23;;;14.50;82.10;;;;;;5087244;28;20040;-50
2022/03/29 11:41:24;;;;;;;26.13;8.75;;;14.70;80.90;;;;;;5091003;28;20440;-51
2022/03/29 11:43:55;;;;;;;23.55;8.88;;;14.70;80.10;;;;;;5091362;28;20043;-51
2022/03/29 11:46:21;;;;;;;20.30;8.93;;;14.80;79.50;;;;;;5072664;28;20040;-48
2022/03/29 11:48:51;;;;;;;24.55;9.57;;;14.70;78.60;;;;;;5091073;28;20040;-49
2022/03/29 11:51:17;;;;;;;23.70;9.73;;;14.70;79.00;;;;;;5090913;28;20491;-49
2022/03/29 11:53:44;;;;;;;22.05;9.70;;;14.80;78.90;;;;;;5090990;28;20050;-47
2022/03/29 11:56:12;;;;;;;19.95;8.77;;;15.00;79.80;;;;;;5090886;28;20097;-51
2022/03/29 11:58:41;;;;;;;34.60;11.30;;;15.20;79.30;;;;;;5091294;28;20039;-51
2022/03/29 12:01:21;;;;;;;18.10;8.63;;;15.40;78.40;;;;;;5090588;28;20106;-49
2022/03/29 12:03:52;;;;;;;17.45;8.00;;;15.50;76.00;;;;;;5090843;28;20066;-49
2022/03/29 12:06:20;;;;;;;18.98;9.00;;;15.50;76.70;;;;;;5090956;28;20043;-48
2022/03/29 12:08:58;;;;;;;21.08;7.93;;;15.50;76.40;;;;;;5071991;28;20438;-52
2022/03/29 12:11:54;;;;;;;22.85;8.35;;;15.60;75.20;;;;;;5090480;28;20040;-48
2022/03/29 12:14:23;;;;;;;18.67;8.40;;;15.70;75.30;;;;;;5088522;28;20356;-50
2022/03/29 12:16:54;;;;;;;18.35;7.68;;;15.80;74.60;;;;;;5090256;28;20523;-48
2022/03/29 12:19:25;;;;;;;20.95;8.18;;;15.80;74.60;;;;;;5091125;28;20039;-51
2022/03/29 12:22:04;;;;;;;24.63;8.77;;;15.80;73.90;;;;;;5069085;28;20036;-48
2022/03/29 12:24:40;;;;;;;23.48;8.95;;;15.60;73.70;;;;;;5090611;28;20485;-48
2022/03/29 12:27:13;;;;;;;20.90;7.93;;;15.60;74.70;;;;;;5090877;28;20044;-49
2022/03/29 12:30:01;;;;;;;20.48;9.07;;;15.30;74.50;;;;;;5090535;28;20044;-49
2022/03/29 12:32:28;;;;;;;21.92;8.55;;;15.70;72.80;;;;;;5091239;28;20618;-49
2022/03/29 12:35:03;;;;;;;20.00;7.43;;;15.60;73.40;;;;;;5089586;28;20043;-49
2022/03/29 12:37:29;;;;;;;17.83;7.35;;;15.40;73.00;;;;;;5090728;28;20044;-48
2022/03/29 12:39:57;;;;;;;17.88;6.70;;;15.40;73.20;;;;;;5071607;28;20135;-49
2022/03/29 12:42:23;;;;;;;23.35;7.55;;;15.30;73.70;;;;;;5090890;28;20048;-51
2022/03/29 12:44:56;;;;;;;27.00;7.50;;;15.30;74.00;;;;;;5089757;28;20497;-51
2022/03/29 12:47:24;;;;;;;21.73;6.50;;;15.30;73.60;;;;;;5089787;28;20728;-51
2022/03/29 12:49:51;;;;;;;22.20;7.95;;;15.30;73.60;;;;;;5089927;28;20090;-49
2022/03/29 12:52:18;;;;;;;20.77;6.97;;;15.40;74.90;;;;;;5088563;28;20524;-52
2022/03/29 12:54:49;;;;;;;20.73;7.07;;;15.40;75.20;;;;;;5089338;28;20098;-51
2022/03/29 12:57:20;;;;;;;22.07;7.47;;;15.30;73.90;;;;;;5090063;28;20036;-49